sensor_id;sensor_type;location;lat;lon;timestamp;P1;durP1;ratioP1;P2;durP2;ratioP2
50012;SDS011;35901;48.694;9.476;2024-02-26T00:01:53;2.77;;;2.57;;
50012;SDS011;35901;48.694;9.476;2024-02-26T00:04:19;4.73;;;2.90;;
50012;SDS011;35901;48.694;9.476;2024-02-26T00:06:46;3.03;;;2.73;;
50012;SDS011;35901;48.694;9.476;2024-02-26T00:09:13;2.90;;;2.60;;
50012;SDS011;35901;48.694;9.476;2024-02-26T00:11:38;2.97;;;2.77;;
50012;SDS011;35901;48.694;9.476;2024-02-26T00:14:04;3.10;;;2.80;;
50012;SDS011;35901;48.694;9.476;2024-02-26T00:16:30;3.57;;;2.97;;
50012;SDS011;35901;48.694;9.476;2024-02-26T00:18:55;2.73;;;2.50;;
50012;SDS011;35901;48.694;9.476;2024-02-26T00:21:21;3.40;;;2.90;;
50012;SDS011;35901;48.694;9.476;2024-02-26T00:23:47;3.00;;;2.70;;
50012;SDS011;35901;48.694;9.476;2024-02-26T00:26:14;3.27;;;2.20;;
50012;SDS011;35901;48.694;9.476;2024-02-26T00:28:40;5.00;;;2.80;;
50012;SDS011;35901;48.694;9.476;2024-02-26T00:31:06;2.70;;;2.50;;
50012;SDS011;35901;48.694;9.476;2024-02-26T00:33:31;3.50;;;3.10;;
50012;SDS011;35901;48.694;9.476;2024-02-26T00:35:57;3.60;;;2.50;;
50012;SDS011;35901;48.694;9.476;2024-02-26T00:38:22;2.63;;;2.43;;
50012;SDS011;35901;48.694;9.476;2024-02-26T00:40:48;3.67;;;2.90;;
50012;SDS011;35901;48.694;9.476;2024-02-26T00:43:14;2.63;;;2.43;;
50012;SDS011;35901;48.694;9.476;2024-02-26T00:45:39;5.70;;;2.50;;
50012;SDS011;35901;48.694;9.476;2024-02-26T00:48:05;2.60;;;2.40;;
50012;SDS011;35901;48.694;9.476;2024-02-26T00:50:32;3.17;;;2.07;;
50012;SDS011;35901;48.694;9.476;2024-02-26T00:52:58;2.40;;;2.20;;
50012;SDS011;35901;48.694;9.476;2024-02-26T00:55:24;2.50;;;2.30;;
50012;SDS011;35901;48.694;9.476;2024-02-26T00:57:50;2.40;;;2.20;;
50012;SDS011;35901;48.694;9.476;2024-02-26T01:00:16;2.83;;;2.63;;
50012;SDS011;35901;48.694;9.476;2024-02-26T01:02:42;3.40;;;3.10;;
50012;SDS011;35901;48.694;9.476;2024-02-26T01:05:08;2.93;;;2.63;;
50012;SDS011;35901;48.694;9.476;2024-02-26T01:07:36;4.00;;;2.87;;
50012;SDS011;35901;48.694;9.476;2024-02-26T01:10:02;2.80;;;2.60;;
50012;SDS011;35901;48.694;9.476;2024-02-26T01:12:29;3.43;;;3.10;;
50012;SDS011;35901;48.694;9.476;2024-02-26T01:14:55;3.07;;;2.83;;
50012;SDS011;35901;48.694;9.476;2024-02-26T01:17:20;2.50;;;2.30;;
50012;SDS011;35901;48.694;9.476;2024-02-26T01:19:46;2.93;;;2.73;;
50012;SDS011;35901;48.694;9.476;2024-02-26T01:22:11;2.67;;;2.47;;
50012;SDS011;35901;48.694;9.476;2024-02-26T01:24:37;2.80;;;2.60;;
50012;SDS011;35901;48.694;9.476;2024-02-26T01:27:03;3.10;;;2.60;;
50012;SDS011;35901;48.694;9.476;2024-02-26T01:29:29;3.00;;;2.57;;
50012;SDS011;35901;48.694;9.476;2024-02-26T01:31:55;2.83;;;2.50;;
50012;SDS011;35901;48.694;9.476;2024-02-26T01:34:21;2.53;;;2.33;;
50012;SDS011;35901;48.694;9.476;2024-02-26T01:36:47;2.40;;;2.20;;
50012;SDS011;35901;48.694;9.476;2024-02-26T01:39:12;2.53;;;2.30;;
50012;SDS011;35901;48.694;9.476;2024-02-26T01:41:38;3.30;;;2.40;;
50012;SDS011;35901;48.694;9.476;2024-02-26T01:44:05;2.63;;;2.43;;
50012;SDS011;35901;48.694;9.476;2024-02-26T01:46:31;2.50;;;2.30;;
50012;SDS011;35901;48.694;9.476;2024-02-26T01:48:59;3.00;;;2.37;;
50012;SDS011;35901;48.694;9.476;2024-02-26T01:51:26;3.00;;;2.70;;
50012;SDS011;35901;48.694;9.476;2024-02-26T01:53:52;5.50;;;2.50;;
50012;SDS011;35901;48.694;9.476;2024-02-26T01:56:18;2.80;;;2.60;;
50012;SDS011;35901;48.694;9.476;2024-02-26T01:58:45;3.80;;;2.60;;
50012;SDS011;35901;48.694;9.476;2024-02-26T02:01:11;2.90;;;2.50;;
50012;SDS011;35901;48.694;9.476;2024-02-26T02:03:38;2.70;;;2.50;;
50012;SDS011;35901;48.694;9.476;2024-02-26T02:06:03;3.60;;;2.70;;
50012;SDS011;35901;48.694;9.476;2024-02-26T02:08:30;2.93;;;2.50;;
50012;SDS011;35901;48.694;9.476;2024-02-26T02:10:56;2.60;;;2.40;;
50012;SDS011;35901;48.694;9.476;2024-02-26T02:13:22;2.93;;;2.60;;
50012;SDS011;35901;48.694;9.476;2024-02-26T02:15:47;3.47;;;2.50;;
50012;SDS011;35901;48.694;9.476;2024-02-26T02:18:13;3.07;;;2.50;;
50012;SDS011;35901;48.694;9.476;2024-02-26T02:20:39;3.23;;;2.93;;
50012;SDS011;35901;48.694;9.476;2024-02-26T02:23:04;3.00;;;2.70;;
50012;SDS011;35901;48.694;9.476;2024-02-26T02:25:30;3.80;;;3.03;;
50012;SDS011;35901;48.694;9.476;2024-02-26T02:27:55;3.80;;;3.03;;
50012;SDS011;35901;48.694;9.476;2024-02-26T02:30:24;3.13;;;2.83;;
50012;SDS011;35901;48.694;9.476;2024-02-26T02:32:52;3.03;;;2.83;;
50012;SDS011;35901;48.694;9.476;2024-02-26T02:35:18;3.60;;;3.20;;
50012;SDS011;35901;48.694;9.476;2024-02-26T02:37:44;3.13;;;2.83;;
50012;SDS011;35901;48.694;9.476;2024-02-26T02:40:10;3.20;;;3.00;;
50012;SDS011;35901;48.694;9.476;2024-02-26T02:42:35;4.43;;;3.10;;
50012;SDS011;35901;48.694;9.476;2024-02-26T02:45:01;3.50;;;3.10;;
50012;SDS011;35901;48.694;9.476;2024-02-26T02:47:26;2.90;;;2.70;;
50012;SDS011;35901;48.694;9.476;2024-02-26T02:49:52;5.13;;;3.30;;
50012;SDS011;35901;48.694;9.476;2024-02-26T02:52:18;3.23;;;2.53;;
50012;SDS011;35901;48.694;9.476;2024-02-26T02:54:43;3.07;;;2.77;;
50012;SDS011;35901;48.694;9.476;2024-02-26T02:57:09;3.40;;;3.10;;
50012;SDS011;35901;48.694;9.476;2024-02-26T02:59:35;4.00;;;3.70;;
50012;SDS011;35901;48.694;9.476;2024-02-26T03:02:02;3.50;;;3.20;;
50012;SDS011;35901;48.694;9.476;2024-02-26T03:04:28;3.53;;;3.23;;
50012;SDS011;35901;48.694;9.476;2024-02-26T03:06:54;3.87;;;3.40;;
50012;SDS011;35901;48.694;9.476;2024-02-26T03:09:20;4.60;;;3.33;;
50012;SDS011;35901;48.694;9.476;2024-02-26T03:11:46;3.63;;;3.27;;
50012;SDS011;35901;48.694;9.476;2024-02-26T03:14:11;3.50;;;3.20;;
50012;SDS011;35901;48.694;9.476;2024-02-26T03:16:37;4.10;;;3.13;;
50012;SDS011;35901;48.694;9.476;2024-02-26T03:19:03;3.37;;;3.07;;
50012;SDS011;35901;48.694;9.476;2024-02-26T03:21:29;3.67;;;3.27;;
50012;SDS011;35901;48.694;9.476;2024-02-26T03:23:54;3.93;;;3.43;;
50012;SDS011;35901;48.694;9.476;2024-02-26T03:26:20;3.77;;;3.47;;
50012;SDS011;35901;48.694;9.476;2024-02-26T03:28:46;3.80;;;3.40;;
50012;SDS011;35901;48.694;9.476;2024-02-26T03:31:12;3.30;;;3.10;;
50012;SDS011;35901;48.694;9.476;2024-02-26T03:33:38;4.80;;;3.30;;
50012;SDS011;35901;48.694;9.476;2024-02-26T03:36:04;3.17;;;2.97;;
50012;SDS011;35901;48.694;9.476;2024-02-26T03:38:30;3.23;;;2.97;;
50012;SDS011;35901;48.694;9.476;2024-02-26T03:40:55;3.10;;;2.80;;
50012;SDS011;35901;48.694;9.476;2024-02-26T03:43:21;3.07;;;2.87;;
50012;SDS011;35901;48.694;9.476;2024-02-26T03:45:47;3.83;;;2.90;;
50012;SDS011;35901;48.694;9.476;2024-02-26T03:48:13;4.33;;;3.20;;
50012;SDS011;35901;48.694;9.476;2024-02-26T03:50:38;3.50;;;3.20;;
50012;SDS011;35901;48.694;9.476;2024-02-26T03:53:04;4.13;;;3.40;;
50012;SDS011;35901;48.694;9.476;2024-02-26T03:55:30;3.37;;;3.07;;
50012;SDS011;35901;48.694;9.476;2024-02-26T03:57:56;4.13;;;3.43;;
50012;SDS011;35901;48.694;9.476;2024-02-26T04:00:21;3.53;;;3.10;;
50012;SDS011;35901;48.694;9.476;2024-02-26T04:02:47;3.50;;;3.20;;
50012;SDS011;35901;48.694;9.476;2024-02-26T04:05:13;3.90;;;3.50;;
50012;SDS011;35901;48.694;9.476;2024-02-26T04:07:39;3.50;;;3.20;;
50012;SDS011;35901;48.694;9.476;2024-02-26T04:10:09;3.63;;;3.33;;
50012;SDS011;35901;48.694;9.476;2024-02-26T04:12:37;5.03;;;3.70;;
50012;SDS011;35901;48.694;9.476;2024-02-26T04:15:10;3.90;;;3.50;;
50012;SDS011;35901;48.694;9.476;2024-02-26T04:17:36;4.13;;;3.50;;
50012;SDS011;35901;48.694;9.476;2024-02-26T04:20:02;3.67;;;3.27;;
50012;SDS011;35901;48.694;9.476;2024-02-26T04:22:30;3.87;;;3.03;;
50012;SDS011;35901;48.694;9.476;2024-02-26T04:24:57;3.47;;;3.00;;
50012;SDS011;35901;48.694;9.476;2024-02-26T04:27:22;3.23;;;2.70;;
50012;SDS011;35901;48.694;9.476;2024-02-26T04:29:48;2.03;;;1.83;;
50012;SDS011;35901;48.694;9.476;2024-02-26T04:32:13;3.30;;;3.00;;
50012;SDS011;35901;48.694;9.476;2024-02-26T04:34:39;4.13;;;3.30;;
50012;SDS011;35901;48.694;9.476;2024-02-26T04:37:05;3.97;;;2.90;;
50012;SDS011;35901;48.694;9.476;2024-02-26T04:39:30;4.07;;;3.10;;
50012;SDS011;35901;48.694;9.476;2024-02-26T04:41:56;4.37;;;3.63;;
50012;SDS011;35901;48.694;9.476;2024-02-26T04:44:22;4.10;;;3.40;;
50012;SDS011;35901;48.694;9.476;2024-02-26T04:46:47;3.13;;;2.90;;
50012;SDS011;35901;48.694;9.476;2024-02-26T04:49:13;4.30;;;3.90;;
50012;SDS011;35901;48.694;9.476;2024-02-26T04:51:38;3.43;;;3.13;;
50012;SDS011;35901;48.694;9.476;2024-02-26T04:54:04;3.50;;;2.93;;
50012;SDS011;35901;48.694;9.476;2024-02-26T04:56:30;3.03;;;2.80;;
50012;SDS011;35901;48.694;9.476;2024-02-26T04:58:55;3.80;;;3.00;;
50012;SDS011;35901;48.694;9.476;2024-02-26T05:01:21;4.20;;;3.50;;
50012;SDS011;35901;48.694;9.476;2024-02-26T05:03:47;4.40;;;3.83;;
50012;SDS011;35901;48.694;9.476;2024-02-26T05:06:13;4.00;;;3.60;;
50012;SDS011;35901;48.694;9.476;2024-02-26T05:08:38;3.30;;;3.10;;
50012;SDS011;35901;48.694;9.476;2024-02-26T05:11:04;3.63;;;3.33;;
50012;SDS011;35901;48.694;9.476;2024-02-26T05:13:31;4.53;;;3.50;;
50012;SDS011;35901;48.694;9.476;2024-02-26T05:15:56;4.93;;;3.17;;
50012;SDS011;35901;48.694;9.476;2024-02-26T05:18:22;4.40;;;4.00;;
50012;SDS011;35901;48.694;9.476;2024-02-26T05:20:48;3.73;;;3.20;;
50012;SDS011;35901;48.694;9.476;2024-02-26T05:23:13;3.63;;;3.33;;
50012;SDS011;35901;48.694;9.476;2024-02-26T05:25:39;4.17;;;3.77;;
50012;SDS011;35901;48.694;9.476;2024-02-26T05:28:06;3.80;;;3.30;;
50012;SDS011;35901;48.694;9.476;2024-02-26T05:30:32;3.53;;;3.17;;
50012;SDS011;35901;48.694;9.476;2024-02-26T05:32:58;3.30;;;3.00;;
50012;SDS011;35901;48.694;9.476;2024-02-26T05:35:24;3.97;;;3.37;;
50012;SDS011;35901;48.694;9.476;2024-02-26T05:37:50;3.37;;;3.07;;
50012;SDS011;35901;48.694;9.476;2024-02-26T05:40:16;5.30;;;3.30;;
50012;SDS011;35901;48.694;9.476;2024-02-26T05:42:42;5.33;;;3.60;;
50012;SDS011;35901;48.694;9.476;2024-02-26T05:45:10;6.97;;;3.53;;
50012;SDS011;35901;48.694;9.476;2024-02-26T05:47:36;4.53;;;3.50;;
50012;SDS011;35901;48.694;9.476;2024-02-26T05:50:08;4.47;;;3.60;;
50012;SDS011;35901;48.694;9.476;2024-02-26T05:52:37;3.10;;;2.90;;
50012;SDS011;35901;48.694;9.476;2024-02-26T05:55:06;5.50;;;3.23;;
50012;SDS011;35901;48.694;9.476;2024-02-26T05:57:33;4.00;;;3.60;;
50012;SDS011;35901;48.694;9.476;2024-02-26T05:59:59;5.43;;;3.50;;
50012;SDS011;35901;48.694;9.476;2024-02-26T06:02:36;3.53;;;3.23;;
50012;SDS011;35901;48.694;9.476;2024-02-26T06:05:02;3.40;;;3.10;;
50012;SDS011;35901;48.694;9.476;2024-02-26T06:07:28;5.60;;;4.30;;
50012;SDS011;35901;48.694;9.476;2024-02-26T06:09:53;4.77;;;4.20;;
50012;SDS011;35901;48.694;9.476;2024-02-26T06:12:19;3.80;;;3.40;;
50012;SDS011;35901;48.694;9.476;2024-02-26T06:14:45;3.70;;;3.37;;
50012;SDS011;35901;48.694;9.476;2024-02-26T06:17:10;6.60;;;3.47;;
50012;SDS011;35901;48.694;9.476;2024-02-26T06:19:36;5.73;;;3.43;;
50012;SDS011;35901;48.694;9.476;2024-02-26T06:22:02;6.00;;;3.80;;
50012;SDS011;35901;48.694;9.476;2024-02-26T06:24:27;4.33;;;3.50;;
50012;SDS011;35901;48.694;9.476;2024-02-26T06:26:53;4.90;;;3.90;;
50012;SDS011;35901;48.694;9.476;2024-02-26T06:29:18;4.10;;;3.70;;
50012;SDS011;35901;48.694;9.476;2024-02-26T06:31:44;3.73;;;3.43;;
50012;SDS011;35901;48.694;9.476;2024-02-26T06:34:10;5.30;;;3.97;;
50012;SDS011;35901;48.694;9.476;2024-02-26T06:36:36;4.07;;;3.67;;
50012;SDS011;35901;48.694;9.476;2024-02-26T06:39:02;4.50;;;3.87;;
50012;SDS011;35901;48.694;9.476;2024-02-26T06:41:28;4.80;;;4.13;;
50012;SDS011;35901;48.694;9.476;2024-02-26T06:43:55;5.03;;;4.43;;
50012;SDS011;35901;48.694;9.476;2024-02-26T06:46:21;5.10;;;4.60;;
50012;SDS011;35901;48.694;9.476;2024-02-26T06:48:50;5.93;;;4.53;;
50012;SDS011;35901;48.694;9.476;2024-02-26T06:51:16;4.30;;;3.90;;
50012;SDS011;35901;48.694;9.476;2024-02-26T06:53:43;5.80;;;4.00;;
50012;SDS011;35901;48.694;9.476;2024-02-26T06:56:08;4.40;;;4.00;;
50012;SDS011;35901;48.694;9.476;2024-02-26T06:58:34;4.87;;;3.90;;
50012;SDS011;35901;48.694;9.476;2024-02-26T07:00:59;7.53;;;3.70;;
50012;SDS011;35901;48.694;9.476;2024-02-26T07:03:25;6.73;;;4.13;;
50012;SDS011;35901;48.694;9.476;2024-02-26T07:05:51;4.20;;;3.80;;
50012;SDS011;35901;48.694;9.476;2024-02-26T07:08:17;4.00;;;3.60;;
50012;SDS011;35901;48.694;9.476;2024-02-26T07:10:43;3.97;;;3.50;;
50012;SDS011;35901;48.694;9.476;2024-02-26T07:13:08;4.20;;;3.80;;
50012;SDS011;35901;48.694;9.476;2024-02-26T07:15:34;4.50;;;3.87;;
50012;SDS011;35901;48.694;9.476;2024-02-26T07:18:00;4.37;;;3.80;;
50012;SDS011;35901;48.694;9.476;2024-02-26T07:20:29;4.57;;;4.17;;
50012;SDS011;35901;48.694;9.476;2024-02-26T07:22:55;5.00;;;3.60;;
50012;SDS011;35901;48.694;9.476;2024-02-26T07:25:21;4.13;;;3.83;;
50012;SDS011;35901;48.694;9.476;2024-02-26T07:27:47;3.73;;;3.27;;
50012;SDS011;35901;48.694;9.476;2024-02-26T07:30:12;4.40;;;4.00;;
50012;SDS011;35901;48.694;9.476;2024-02-26T07:32:38;4.50;;;4.07;;
50012;SDS011;35901;48.694;9.476;2024-02-26T07:35:04;3.73;;;3.43;;
50012;SDS011;35901;48.694;9.476;2024-02-26T07:37:30;3.97;;;3.57;;
50012;SDS011;35901;48.694;9.476;2024-02-26T07:39:56;3.37;;;3.07;;
50012;SDS011;35901;48.694;9.476;2024-02-26T07:42:21;3.67;;;3.30;;
50012;SDS011;35901;48.694;9.476;2024-02-26T07:44:47;3.73;;;3.20;;
50012;SDS011;35901;48.694;9.476;2024-02-26T07:47:13;3.43;;;3.13;;
50012;SDS011;35901;48.694;9.476;2024-02-26T07:49:39;4.20;;;3.80;;
50012;SDS011;35901;48.694;9.476;2024-02-26T07:52:05;4.00;;;3.23;;
50012;SDS011;35901;48.694;9.476;2024-02-26T07:54:31;6.90;;;4.60;;
50012;SDS011;35901;48.694;9.476;2024-02-26T07:56:57;6.73;;;6.03;;
50012;SDS011;35901;48.694;9.476;2024-02-26T07:59:22;8.53;;;6.27;;
50012;SDS011;35901;48.694;9.476;2024-02-26T08:01:52;6.17;;;5.40;;
50012;SDS011;35901;48.694;9.476;2024-02-26T08:04:19;6.40;;;5.50;;
50012;SDS011;35901;48.694;9.476;2024-02-26T08:06:45;5.27;;;4.40;;
50012;SDS011;35901;48.694;9.476;2024-02-26T08:09:10;6.00;;;3.90;;
50012;SDS011;35901;48.694;9.476;2024-02-26T08:11:37;6.80;;;5.30;;
50012;SDS011;35901;48.694;9.476;2024-02-26T08:14:03;8.03;;;6.07;;
50012;SDS011;35901;48.694;9.476;2024-02-26T08:16:29;6.90;;;5.43;;
50012;SDS011;35901;48.694;9.476;2024-02-26T08:18:55;6.23;;;4.50;;
50012;SDS011;35901;48.694;9.476;2024-02-26T08:21:20;4.10;;;3.70;;
50012;SDS011;35901;48.694;9.476;2024-02-26T08:23:46;5.00;;;3.80;;
50012;SDS011;35901;48.694;9.476;2024-02-26T08:26:12;4.20;;;3.80;;
50012;SDS011;35901;48.694;9.476;2024-02-26T08:28:37;4.03;;;3.70;;
50012;SDS011;35901;48.694;9.476;2024-02-26T08:31:03;4.33;;;3.93;;
50012;SDS011;35901;48.694;9.476;2024-02-26T08:33:30;3.77;;;3.43;;
50012;SDS011;35901;48.694;9.476;2024-02-26T08:35:55;3.70;;;3.40;;
50012;SDS011;35901;48.694;9.476;2024-02-26T08:38:21;3.70;;;3.40;;
50012;SDS011;35901;48.694;9.476;2024-02-26T08:40:47;3.53;;;3.23;;
50012;SDS011;35901;48.694;9.476;2024-02-26T08:43:14;4.10;;;3.70;;
50012;SDS011;35901;48.694;9.476;2024-02-26T08:45:39;3.83;;;3.53;;
50012;SDS011;35901;48.694;9.476;2024-02-26T08:48:05;4.03;;;3.60;;
50012;SDS011;35901;48.694;9.476;2024-02-26T08:50:31;4.17;;;3.80;;
50012;SDS011;35901;48.694;9.476;2024-02-26T08:52:57;4.00;;;3.63;;
50012;SDS011;35901;48.694;9.476;2024-02-26T08:55:22;4.10;;;3.77;;
50012;SDS011;35901;48.694;9.476;2024-02-26T08:57:48;5.03;;;4.10;;
50012;SDS011;35901;48.694;9.476;2024-02-26T09:00:14;4.27;;;3.73;;
50012;SDS011;35901;48.694;9.476;2024-02-26T09:02:41;5.00;;;3.83;;
50012;SDS011;35901;48.694;9.476;2024-02-26T09:05:08;3.77;;;3.47;;
50012;SDS011;35901;48.694;9.476;2024-02-26T09:07:35;4.47;;;3.73;;
50012;SDS011;35901;48.694;9.476;2024-02-26T09:10:01;4.03;;;3.60;;
50012;SDS011;35901;48.694;9.476;2024-02-26T09:12:27;4.13;;;3.73;;
50012;SDS011;35901;48.694;9.476;2024-02-26T09:14:53;4.87;;;3.80;;
50012;SDS011;35901;48.694;9.476;2024-02-26T09:17:21;4.20;;;3.80;;
50012;SDS011;35901;48.694;9.476;2024-02-26T09:19:46;4.10;;;3.70;;
50012;SDS011;35901;48.694;9.476;2024-02-26T09:22:12;4.80;;;3.90;;
50012;SDS011;35901;48.694;9.476;2024-02-26T09:24:38;5.30;;;3.77;;
50012;SDS011;35901;48.694;9.476;2024-02-26T09:27:03;5.30;;;4.27;;
50012;SDS011;35901;48.694;9.476;2024-02-26T09:29:29;4.93;;;3.67;;
50012;SDS011;35901;48.694;9.476;2024-02-26T09:31:55;4.80;;;4.00;;
50012;SDS011;35901;48.694;9.476;2024-02-26T09:34:20;4.90;;;4.00;;
50012;SDS011;35901;48.694;9.476;2024-02-26T09:36:46;5.57;;;4.40;;
50012;SDS011;35901;48.694;9.476;2024-02-26T09:39:12;5.47;;;4.30;;
50012;SDS011;35901;48.694;9.476;2024-02-26T09:41:39;6.50;;;4.27;;
50012;SDS011;35901;48.694;9.476;2024-02-26T09:44:05;4.77;;;4.30;;
50012;SDS011;35901;48.694;9.476;2024-02-26T09:46:31;5.07;;;4.60;;
50012;SDS011;35901;48.694;9.476;2024-02-26T09:48:57;4.97;;;4.50;;
50012;SDS011;35901;48.694;9.476;2024-02-26T09:51:23;6.23;;;4.50;;
50012;SDS011;35901;48.694;9.476;2024-02-26T09:53:51;6.13;;;4.20;;
50012;SDS011;35901;48.694;9.476;2024-02-26T09:56:17;5.13;;;4.27;;
50012;SDS011;35901;48.694;9.476;2024-02-26T09:58:44;4.87;;;4.13;;
50012;SDS011;35901;48.694;9.476;2024-02-26T10:01:17;4.10;;;3.63;;
50012;SDS011;35901;48.694;9.476;2024-02-26T10:03:43;4.73;;;3.83;;
50012;SDS011;35901;48.694;9.476;2024-02-26T10:06:11;4.87;;;4.20;;
50012;SDS011;35901;48.694;9.476;2024-02-26T10:08:37;4.87;;;4.07;;
50012;SDS011;35901;48.694;9.476;2024-02-26T10:11:04;4.33;;;3.93;;
50012;SDS011;35901;48.694;9.476;2024-02-26T10:13:31;4.33;;;3.60;;
50012;SDS011;35901;48.694;9.476;2024-02-26T10:15:57;7.40;;;3.40;;
50012;SDS011;35901;48.694;9.476;2024-02-26T10:18:23;4.17;;;3.53;;
50012;SDS011;35901;48.694;9.476;2024-02-26T10:21:01;3.60;;;3.30;;
50012;SDS011;35901;48.694;9.476;2024-02-26T10:23:27;3.73;;;3.43;;
50012;SDS011;35901;48.694;9.476;2024-02-26T10:25:56;3.53;;;3.23;;
50012;SDS011;35901;48.694;9.476;2024-02-26T10:28:22;3.77;;;3.47;;
50012;SDS011;35901;48.694;9.476;2024-02-26T10:30:48;4.10;;;3.70;;
50012;SDS011;35901;48.694;9.476;2024-02-26T10:33:14;4.10;;;3.70;;
50012;SDS011;35901;48.694;9.476;2024-02-26T10:35:44;4.27;;;3.87;;
50012;SDS011;35901;48.694;9.476;2024-02-26T10:38:11;5.10;;;3.73;;
50012;SDS011;35901;48.694;9.476;2024-02-26T10:40:37;3.93;;;3.47;;
50012;SDS011;35901;48.694;9.476;2024-02-26T10:43:03;4.17;;;3.10;;
50012;SDS011;35901;48.694;9.476;2024-02-26T10:45:28;3.73;;;3.43;;
50012;SDS011;35901;48.694;9.476;2024-02-26T10:47:54;3.50;;;2.90;;
50012;SDS011;35901;48.694;9.476;2024-02-26T10:50:20;2.97;;;2.50;;
50012;SDS011;35901;48.694;9.476;2024-02-26T10:52:45;3.00;;;2.80;;
50012;SDS011;35901;48.694;9.476;2024-02-26T10:55:17;2.57;;;2.37;;
50012;SDS011;35901;48.694;9.476;2024-02-26T10:57:45;2.00;;;1.90;;
50012;SDS011;35901;48.694;9.476;2024-02-26T11:00:15;3.47;;;2.60;;
50012;SDS011;35901;48.694;9.476;2024-02-26T11:02:41;2.50;;;2.30;;
50012;SDS011;35901;48.694;9.476;2024-02-26T11:05:13;2.53;;;2.20;;
50012;SDS011;35901;48.694;9.476;2024-02-26T11:07:39;2.00;;;1.90;;
50012;SDS011;35901;48.694;9.476;2024-02-26T11:10:07;2.20;;;2.03;;
50012;SDS011;35901;48.694;9.476;2024-02-26T11:12:34;2.13;;;2.03;;
50012;SDS011;35901;48.694;9.476;2024-02-26T11:15:02;2.10;;;2.00;;
50012;SDS011;35901;48.694;9.476;2024-02-26T11:17:28;3.30;;;2.23;;
50012;SDS011;35901;48.694;9.476;2024-02-26T11:19:58;3.23;;;2.13;;
50012;SDS011;35901;48.694;9.476;2024-02-26T11:22:25;2.10;;;1.90;;
50012;SDS011;35901;48.694;9.476;2024-02-26T11:24:52;1.90;;;1.80;;
50012;SDS011;35901;48.694;9.476;2024-02-26T11:27:21;1.90;;;1.80;;
50012;SDS011;35901;48.694;9.476;2024-02-26T11:29:51;2.07;;;1.97;;
50012;SDS011;35901;48.694;9.476;2024-02-26T11:32:19;3.03;;;2.00;;
50012;SDS011;35901;48.694;9.476;2024-02-26T11:34:46;3.77;;;1.90;;
50012;SDS011;35901;48.694;9.476;2024-02-26T11:37:13;2.20;;;2.00;;
50012;SDS011;35901;48.694;9.476;2024-02-26T11:39:40;2.20;;;2.00;;
50012;SDS011;35901;48.694;9.476;2024-02-26T11:42:07;2.90;;;2.20;;
50012;SDS011;35901;48.694;9.476;2024-02-26T11:44:34;2.07;;;1.97;;
50012;SDS011;35901;48.694;9.476;2024-02-26T11:47:20;2.13;;;1.90;;
50012;SDS011;35901;48.694;9.476;2024-02-26T11:49:47;1.70;;;1.60;;
50012;SDS011;35901;48.694;9.476;2024-02-26T11:52:14;2.07;;;1.97;;
50012;SDS011;35901;48.694;9.476;2024-02-26T11:57:23;1.80;;;1.70;;
50012;SDS011;35901;48.694;9.476;2024-02-26T11:59:50;1.87;;;1.73;;
50012;SDS011;35901;48.694;9.476;2024-02-26T12:05:12;2.20;;;1.90;;
50012;SDS011;35901;48.694;9.476;2024-02-26T12:10:33;2.07;;;1.97;;
50012;SDS011;35901;48.694;9.476;2024-02-26T12:13:10;2.10;;;1.90;;
50012;SDS011;35901;48.694;9.476;2024-02-26T12:15:54;2.20;;;2.00;;
50012;SDS011;35901;48.694;9.476;2024-02-26T12:18:22;2.30;;;2.10;;
50012;SDS011;35901;48.694;9.476;2024-02-26T12:21:01;2.17;;;2.00;;
50012;SDS011;35901;48.694;9.476;2024-02-26T12:23:29;1.90;;;1.80;;
50012;SDS011;35901;48.694;9.476;2024-02-26T12:26:01;1.90;;;1.80;;
50012;SDS011;35901;48.694;9.476;2024-02-26T12:28:30;1.97;;;1.87;;
50012;SDS011;35901;48.694;9.476;2024-02-26T12:30:57;1.90;;;1.80;;
50012;SDS011;35901;48.694;9.476;2024-02-26T12:33:25;2.33;;;2.13;;
50012;SDS011;35901;48.694;9.476;2024-02-26T12:35:51;2.33;;;1.87;;
50012;SDS011;35901;48.694;9.476;2024-02-26T12:38:18;2.23;;;2.03;;
50012;SDS011;35901;48.694;9.476;2024-02-26T12:40:44;2.73;;;2.37;;
50012;SDS011;35901;48.694;9.476;2024-02-26T12:43:10;3.20;;;2.40;;
50012;SDS011;35901;48.694;9.476;2024-02-26T12:45:42;3.07;;;2.70;;
50012;SDS011;35901;48.694;9.476;2024-02-26T12:48:12;3.40;;;2.50;;
50012;SDS011;35901;48.694;9.476;2024-02-26T12:50:38;2.77;;;2.33;;
50012;SDS011;35901;48.694;9.476;2024-02-26T12:53:04;2.23;;;2.13;;
50012;SDS011;35901;48.694;9.476;2024-02-26T12:55:31;2.57;;;2.23;;
50012;SDS011;35901;48.694;9.476;2024-02-26T12:57:59;2.03;;;1.90;;
50012;SDS011;35901;48.694;9.476;2024-02-26T13:00:26;2.43;;;2.23;;
50012;SDS011;35901;48.694;9.476;2024-02-26T13:02:53;2.30;;;2.10;;
50012;SDS011;35901;48.694;9.476;2024-02-26T13:05:20;3.00;;;2.20;;
50012;SDS011;35901;48.694;9.476;2024-02-26T13:07:47;2.43;;;2.23;;
50012;SDS011;35901;48.694;9.476;2024-02-26T13:10:13;2.97;;;2.07;;
50012;SDS011;35901;48.694;9.476;2024-02-26T13:12:43;2.40;;;2.20;;
50012;SDS011;35901;48.694;9.476;2024-02-26T13:15:13;2.10;;;1.90;;
50012;SDS011;35901;48.694;9.476;2024-02-26T13:17:40;2.00;;;1.80;;
50012;SDS011;35901;48.694;9.476;2024-02-26T13:20:07;2.50;;;2.27;;
50012;SDS011;35901;48.694;9.476;2024-02-26T13:22:35;2.67;;;2.47;;
50012;SDS011;35901;48.694;9.476;2024-02-26T13:25:00;2.80;;;1.97;;
50012;SDS011;35901;48.694;9.476;2024-02-26T13:27:28;3.53;;;2.20;;
50012;SDS011;35901;48.694;9.476;2024-02-26T13:30:10;3.77;;;2.40;;
50012;SDS011;35901;48.694;9.476;2024-02-26T13:32:40;2.37;;;2.20;;
50012;SDS011;35901;48.694;9.476;2024-02-26T13:37:33;2.40;;;2.20;;
50012;SDS011;35901;48.694;9.476;2024-02-26T13:39:59;2.20;;;2.03;;
50012;SDS011;35901;48.694;9.476;2024-02-26T13:42:25;2.40;;;2.20;;
50012;SDS011;35901;48.694;9.476;2024-02-26T13:44:50;2.57;;;2.37;;
50012;SDS011;35901;48.694;9.476;2024-02-26T13:47:16;2.47;;;2.27;;
50012;SDS011;35901;48.694;9.476;2024-02-26T13:49:43;2.47;;;2.27;;
50012;SDS011;35901;48.694;9.476;2024-02-26T13:52:09;2.50;;;2.30;;
50012;SDS011;35901;48.694;9.476;2024-02-26T13:54:34;3.93;;;2.13;;
50012;SDS011;35901;48.694;9.476;2024-02-26T13:57:00;2.03;;;1.90;;
50012;SDS011;35901;48.694;9.476;2024-02-26T13:59:26;2.77;;;2.53;;
50012;SDS011;35901;48.694;9.476;2024-02-26T14:01:51;2.43;;;2.30;;
50012;SDS011;35901;48.694;9.476;2024-02-26T14:04:20;2.80;;;2.27;;
50012;SDS011;35901;48.694;9.476;2024-02-26T14:06:45;3.33;;;2.70;;
50012;SDS011;35901;48.694;9.476;2024-02-26T14:09:11;2.50;;;2.30;;
50012;SDS011;35901;48.694;9.476;2024-02-26T14:11:43;2.53;;;2.27;;
50012;SDS011;35901;48.694;9.476;2024-02-26T14:14:12;2.57;;;2.37;;
50012;SDS011;35901;48.694;9.476;2024-02-26T14:16:37;2.87;;;2.33;;
50012;SDS011;35901;48.694;9.476;2024-02-26T14:19:03;2.97;;;1.97;;
50012;SDS011;35901;48.694;9.476;2024-02-26T14:21:29;2.63;;;2.20;;
50012;SDS011;35901;48.694;9.476;2024-02-26T14:23:55;2.10;;;2.00;;
50012;SDS011;35901;48.694;9.476;2024-02-26T14:26:21;3.30;;;2.20;;
50012;SDS011;35901;48.694;9.476;2024-02-26T14:28:47;2.37;;;2.17;;
50012;SDS011;35901;48.694;9.476;2024-02-26T14:31:13;2.70;;;2.20;;
50012;SDS011;35901;48.694;9.476;2024-02-26T14:33:42;5.47;;;2.23;;
50012;SDS011;35901;48.694;9.476;2024-02-26T14:36:07;2.50;;;2.30;;
50012;SDS011;35901;48.694;9.476;2024-02-26T14:38:33;2.70;;;2.37;;
50012;SDS011;35901;48.694;9.476;2024-02-26T14:40:59;2.40;;;2.20;;
50012;SDS011;35901;48.694;9.476;2024-02-26T14:43:24;3.17;;;2.10;;
50012;SDS011;35901;48.694;9.476;2024-02-26T14:45:50;2.40;;;2.20;;
50012;SDS011;35901;48.694;9.476;2024-02-26T14:48:16;2.17;;;2.03;;
50012;SDS011;35901;48.694;9.476;2024-02-26T14:50:41;2.70;;;2.03;;
50012;SDS011;35901;48.694;9.476;2024-02-26T14:53:07;2.40;;;2.20;;
50012;SDS011;35901;48.694;9.476;2024-02-26T14:55:32;2.77;;;2.10;;